Sand Springs, Montana
Current Conditions -  °F | °C
As of 6:35 AM on Friday 28 Nov 2014 (Local Time) from KMVH Reporting Station
Clear Clear  
Wind Chill: 38°   Ceiling: Unl
Heat Index: 41°   Visibility: 10mi
Dew Point: 28°   Wind: 5mph
Humidity: 61%   Direction: NA
Pressure: 29.59"   Gusts: NA
Location:  47.1°N, 107.49°W
Report Text: KMVH 281335Z AUTO VRB04KT 10SM CLR 05/M02 A2959 RMK A01
Loading
Personal Weather Stations






























Interactive Weather Map New forecast layout! Learn more

10-Day Weather Forecast

Advertisements
Track Severe Weather on mobile